Time;durP1;ratioP1;P1;durP2;ratioP2;P2;SDS_P1;SDS_P2;PMS_P1;PMS_P2;Temp;Humidity;BMP_temperature;BMP_pressure;BME280_temperature;BME280_humidity;BME280_pressure;Samples;Min_cycle;Max_cycle;Signal;HPM_P1;HPM_P2
2023/03/22 00:01:22;;;;;;;6.88;4.07;;;12.80;56.20;;;8.27;85.19;95441.38;5003089;28;20025;-58
2023/03/22 00:03:50;;;;;;;6.60;4.07;;;12.80;56.20;;;8.22;86.03;95430.69;5012518;28;20029;-58
2023/03/22 00:06:18;;;;;;;7.82;3.88;;;12.80;56.20;;;8.17;86.81;95427.19;5011049;28;20045;-58
2023/03/22 00:08:49;;;;;;;4.75;3.50;;;12.80;56.30;;;8.19;86.20;95422.44;5012306;28;20036;-57
2023/03/22 00:11:15;;;;;;;8.07;3.92;;;12.80;56.30;;;8.15;86.69;95421.34;5003203;28;20045;-58
2023/03/22 00:13:42;;;;;;;6.20;3.85;;;12.70;56.30;;;8.07;86.66;95420.75;5011902;28;20111;-55
2023/03/22 00:16:10;;;;;;;4.93;3.47;;;12.70;56.30;;;8.09;86.86;95413.34;5012123;28;20496;-57
2023/03/22 00:18:36;;;;;;;9.00;4.38;;;12.70;56.40;;;8.11;87.53;95413.09;5011431;28;20116;-57
2023/03/22 00:21:02;;;;;;;5.85;3.85;;;12.60;56.40;;;8.07;88.28;95410.13;5012511;28;20112;-57
2023/03/22 00:23:29;;;;;;;4.60;3.65;;;12.60;56.50;;;8.05;88.35;95403.47;5004847;28;20053;-58
2023/03/22 00:25:55;;;;;;;5.03;3.92;;;12.60;56.60;;;7.89;89.52;95399.91;5005888;28;20025;-53
2023/03/22 00:28:23;;;;;;;5.35;4.15;;;12.60;56.60;;;7.91;89.18;95407.63;4997819;28;20022;-53
2023/03/22 00:31:01;;;;;;;7.00;3.92;;;12.50;56.70;;;7.89;89.54;95406.00;4998819;28;20132;-53
2023/03/22 00:33:30;;;;;;;6.30;4.38;;;12.50;56.90;;;7.93;88.91;95403.66;5012352;28;20068;-54
2023/03/22 00:36:10;;;;;;;6.50;4.93;;;12.50;56.90;;;7.89;88.85;95392.72;4999161;28;20124;-54
2023/03/22 00:38:37;;;;;;;5.60;4.32;;;12.40;57.00;;;7.87;89.19;95400.16;5012433;28;20025;-54
2023/03/22 00:41:21;;;;;;;6.72;5.05;;;12.40;57.00;;;7.83;89.19;95395.59;5008163;28;20029;-55
2023/03/22 00:43:50;;;;;;;5.60;4.40;;;12.40;57.20;;;7.74;90.47;95402.41;5012021;28;20018;-54
2023/03/22 00:46:19;;;;;;;7.70;4.35;;;12.40;57.20;;;7.69;91.30;95403.16;5010514;28;20108;-54
2023/03/22 00:48:46;;;;;;;7.82;5.15;;;12.30;57.20;;;7.70;91.54;95406.63;5005578;28;20365;-57
2023/03/22 00:51:14;;;;;;;9.00;5.03;;;12.30;57.30;;;7.70;91.21;95396.00;4999599;28;20060;-56
2023/03/22 00:53:41;;;;;;;9.82;5.60;;;12.20;57.40;;;7.64;91.36;95395.16;5009764;28;20024;-57
2023/03/22 00:56:08;;;;;;;5.82;5.10;;;12.20;57.40;;;7.56;91.60;95399.06;4999830;28;20034;-58
2023/03/22 00:58:34;;;;;;;7.20;5.45;;;12.10;57.50;;;7.52;91.71;95392.66;5009640;28;20033;-58
2023/03/22 01:01:00;;;;;;;8.70;4.63;;;12.10;57.60;;;7.48;91.52;95398.69;5000363;28;20175;-56
2023/03/22 01:03:26;;;;;;;6.80;5.00;;;12.00;57.60;;;7.39;92.36;95401.78;5012181;28;20571;-57
2023/03/22 01:05:54;;;;;;;6.22;5.20;;;12.00;57.60;;;7.32;92.92;95398.53;5014437;28;20029;-56
2023/03/22 01:08:22;;;;;;;6.45;5.15;;;11.90;57.70;;;7.13;94.10;95394.59;5015402;28;20017;-58
2023/03/22 01:10:49;;;;;;;8.45;6.07;;;11.90;57.80;;;7.01;94.36;95400.03;5010319;28;20050;-58
2023/03/22 01:13:16;;;;;;;8.20;4.97;;;11.80;57.80;;;6.98;94.07;95397.88;5010316;28;20021;-58
2023/03/22 01:15:42;;;;;;;10.93;5.35;;;11.70;57.80;;;6.95;93.86;95393.06;5015510;28;20029;-54
2023/03/22 01:18:10;;;;;;;5.93;5.30;;;11.60;57.80;;;6.91;93.88;95391.97;5011577;28;20022;-58
2023/03/22 01:20:37;;;;;;;7.30;5.63;;;11.60;58.00;;;6.79;95.14;95386.75;5004962;28;20029;-56
2023/03/22 01:23:03;;;;;;;6.63;5.07;;;11.50;58.00;;;6.71;95.53;95381.91;5011036;28;20026;-58
2023/03/22 01:25:29;;;;;;;7.45;5.45;;;11.40;58.10;;;6.61;95.40;95379.94;5005043;28;20391;-55
2023/03/22 01:27:55;;;;;;;8.98;5.22;;;11.40;58.10;;;6.53;95.25;95375.03;5015318;28;20028;-58
2023/03/22 01:30:21;;;;;;;7.93;5.68;;;11.20;58.20;;;6.39;96.12;95366.66;5004831;28;20025;-53
2023/03/22 01:32:47;;;;;;;6.88;5.78;;;11.20;58.20;;;6.32;96.49;95366.00;5011048;28;20028;-52
2023/03/22 01:35:12;;;;;;;6.60;5.20;;;11.10;58.30;;;6.23;96.76;95367.47;5006086;28;20025;-52
2023/03/22 01:37:38;;;;;;;7.40;5.32;;;11.00;58.40;;;6.16;96.54;95364.19;5010971;28;20021;-57
2023/03/22 01:40:06;;;;;;;7.40;5.30;;;10.80;58.40;;;6.07;96.26;95355.84;5014613;28;20111;-58
2023/03/22 01:42:32;;;;;;;8.35;5.68;;;10.80;58.50;;;5.97;96.33;95351.22;5000045;28;20040;-58
2023/03/22 01:45:13;;;;;;;9.05;5.68;;;10.70;58.50;;;5.77;98.00;95349.03;5014889;28;20029;-58
2023/03/22 01:47:58;;;;;;;7.97;6.10;;;10.60;58.70;;;5.66;99.78;95349.09;5007314;28;20025;-54
2023/03/22 01:50:26;;;;;;;7.22;5.60;;;10.50;58.80;;;5.61;99.36;95351.63;5001226;28;20168;-53
2023/03/22 01:52:56;;;;;;;9.20;5.55;;;10.40;58.80;;;5.43;100.00;95348.19;5007562;28;20075;-58
2023/03/22 01:55:24;;;;;;;8.20;4.93;;;10.30;59.00;;;5.43;100.00;95352.66;5008892;28;20034;-55
2023/03/22 01:57:53;;;;;;;8.77;5.43;;;10.20;59.10;;;5.33;100.00;95348.00;5013534;28;20052;-54
2023/03/22 02:00:20;;;;;;;7.32;5.43;;;10.10;59.10;;;5.30;100.00;95348.47;5012894;28;20021;-57
2023/03/22 02:02:51;;;;;;;7.75;5.55;;;10.00;59.10;;;5.21;100.00;95357.81;5014353;28;20025;-56
2023/03/22 02:05:21;;;;;;;8.88;5.82;;;10.00;59.40;;;5.19;100.00;95354.59;5004047;28;20053;-56
2023/03/22 02:07:49;;;;;;;8.30;5.97;;;9.90;59.40;;;5.13;100.00;95358.97;5005895;28;20431;-57
2023/03/22 02:10:25;;;;;;;11.65;6.05;;;9.80;59.50;;;5.10;100.00;95354.16;5013316;28;20029;-57
2023/03/22 02:14:07;;;;;;;8.57;6.18;;;9.80;59.70;;;5.10;100.00;95354.16;5006972;28;20056;-53
2023/03/22 02:17:07;;;;;;;9.73;5.88;;;9.70;59.90;;;5.13;100.00;95356.34;5006164;28;20171;-53
2023/03/22 02:20:08;;;;;;;6.97;5.18;;;9.70;60.00;;;5.08;100.00;95343.84;5006879;28;20021;-57
2023/03/22 02:22:43;;;;;;;7.38;5.60;;;9.70;60.10;;;5.05;100.00;95338.25;5011695;28;20032;-52
2023/03/22 02:26:04;;;;;;;9.18;6.65;;;9.60;60.00;;;4.95;100.00;95341.50;5001019;28;20426;-58
2023/03/22 02:28:52;;;;;;;10.38;5.90;;;9.60;60.10;;;4.90;100.00;95340.59;5011472;28;20026;-58
2023/03/22 02:31:36;;;;;;;7.20;5.65;;;9.50;60.10;;;4.79;100.00;95343.00;4998375;28;20036;-55
2023/03/22 02:34:26;;;;;;;7.25;5.47;;;9.50;60.30;;;4.78;100.00;95340.63;5013582;28;20029;-58
2023/03/22 02:38:01;;;;;;;8.68;5.35;;;9.40;60.50;;;4.73;100.00;95335.22;5003496;28;20468;-56
2023/03/22 02:40:59;;;;;;;5.93;4.97;;;9.30;60.50;;;4.66;100.00;95324.81;5000975;28;20040;-54
2023/03/22 02:43:49;;;;;;;7.30;4.97;;;9.30;60.50;;;4.59;100.00;95332.84;4983676;28;20118;-52
2023/03/22 02:46:44;;;;;;;9.35;5.00;;;9.20;60.50;;;4.54;100.00;95330.09;5012599;28;20384;-56
2023/03/22 02:49:50;;;;;;;7.35;4.90;;;9.20;60.60;;;4.49;100.00;95330.03;5008126;28;20388;-55
2023/03/22 02:52:45;;;;;;;8.40;4.75;;;9.10;60.70;;;4.40;100.00;95329.56;5012016;28;20033;-52
2023/03/22 02:55:53;;;;;;;8.52;5.22;;;9.10;60.80;;;4.37;100.00;95340.56;5007048;28;20064;-53
2023/03/22 02:58:27;;;;;;;9.00;5.05;;;9.00;60.80;;;4.37;100.00;95345.06;5012959;28;20091;-56
2023/03/22 03:01:06;;;;;;;8.95;5.75;;;9.00;60.90;;;4.33;100.00;95347.34;5000835;28;20065;-51
2023/03/22 03:03:39;;;;;;;7.18;4.85;;;9.00;61.00;;;4.28;100.00;95346.44;5013186;28;20021;-54
2023/03/22 03:06:15;;;;;;;7.82;5.60;;;8.90;61.00;;;4.25;100.00;95346.91;5010980;28;20028;-56
2023/03/22 03:08:45;;;;;;;7.78;5.55;;;8.90;61.20;;;4.23;100.00;95343.69;5013195;28;20513;-55
2023/03/22 03:11:11;;;;;;;9.85;4.88;;;8.90;61.20;;;4.18;100.00;95341.75;5010427;28;20124;-53
2023/03/22 03:13:37;;;;;;;12.23;5.85;;;8.80;61.20;;;4.15;100.00;95342.19;5013058;28;20044;-54
2023/03/22 03:16:08;;;;;;;8.63;5.30;;;8.80;61.20;;;4.09;100.00;95338.66;5012960;28;20045;-52
2023/03/22 03:18:58;;;;;;;10.23;5.88;;;8.80;61.30;;;4.00;100.00;95337.38;5012023;28;20036;-53
2023/03/22 03:22:08;;;;;;;11.10;5.97;;;8.70;61.40;;;3.96;100.00;95335.44;5012066;28;20357;-57
2023/03/22 03:24:56;;;;;;;10.07;6.50;;;8.70;61.50;;;3.96;100.00;95340.72;5011907;28;20036;-55
2023/03/22 03:27:45;;;;;;;11.18;6.50;;;8.60;61.70;;;3.99;100.00;95341.06;5011687;28;20090;-52
2023/03/22 03:30:34;;;;;;;8.50;6.47;;;8.60;62.00;;;3.99;100.00;95337.63;5007701;28;20021;-55
2023/03/22 03:33:15;;;;;;;8.98;6.10;;;8.60;62.10;;;3.98;100.00;95338.63;5011686;28;20033;-57
2023/03/22 03:35:58;;;;;;;8.10;5.50;;;8.60;62.20;;;3.92;100.00;95349.06;5010032;28;20480;-52
2023/03/22 03:38:35;;;;;;;;;;;8.60;62.10;;;3.84;100.00;95343.34;5013381;28;20025;-57
2023/03/22 03:41:09;;;;;;;10.85;5.18;;;8.50;61.50;;;3.82;100.00;95343.53;5011612;28;19912;-56
2023/03/22 03:43:37;;;;;;;8.13;5.50;;;8.50;61.80;;;3.82;100.00;95350.66;5028099;28;20021;-54
2023/03/22 03:46:05;;;;;;;7.53;5.18;;;8.50;61.80;;;3.71;100.00;95349.63;5012668;28;20403;-55
2023/03/22 03:48:38;;;;;;;7.25;5.20;;;8.40;61.70;;;3.64;100.00;95349.72;5010358;28;20040;-54
2023/03/22 03:51:04;;;;;;;;;;;8.40;61.80;;;3.64;100.00;95348.94;4992099;28;20040;-58
2023/03/22 03:53:31;;;;;;;9.45;6.40;;;8.30;61.40;;;3.60;100.00;95345.91;5005480;28;19996;-55
2023/03/22 03:55:56;;;;;;;10.10;6.45;;;8.30;61.70;;;3.57;100.00;95356.09;5012532;28;20036;-52
2023/03/22 03:58:24;;;;;;;9.90;5.80;;;8.30;61.90;;;3.55;100.00;95345.81;5010475;28;20542;-55
2023/03/22 04:00:50;;;;;;;11.70;6.05;;;8.20;62.00;;;3.52;100.00;95342.84;4990924;28;20017;-53
2023/03/22 04:03:16;;;;;;;8.80;5.95;;;8.20;62.10;;;3.48;100.00;95345.91;4998533;28;20029;-50
2023/03/22 04:05:43;;;;;;;8.05;5.70;;;8.20;62.20;;;3.47;100.00;95346.13;4999292;28;20107;-54
2023/03/22 04:08:09;;;;;;;12.30;6.82;;;8.10;62.20;;;3.42;100.00;95343.38;5007717;28;20032;-51
2023/03/22 04:10:35;;;;;;;12.13;6.00;;;8.10;62.30;;;3.39;100.00;95352.53;5003702;28;20373;-54
2023/03/22 04:13:01;;;;;;;10.05;5.85;;;8.10;62.50;;;3.36;100.00;95352.97;5008510;28;20026;-50
2023/03/22 04:15:27;;;;;;;9.30;6.05;;;8.10;62.50;;;3.34;100.00;95349.75;5006511;28;20033;-50
2023/03/22 04:17:53;;;;;;;9.93;6.22;;;8.00;62.40;;;3.30;100.00;95353.88;5009635;28;20021;-51
2023/03/22 04:20:19;;;;;;;9.77;5.53;;;8.00;62.50;;;3.22;100.00;95362.06;5005630;28;20116;-51
2023/03/22 04:22:47;;;;;;;9.60;5.70;;;8.00;62.50;;;3.20;100.00;95351.78;5004950;28;20832;-50
2023/03/22 04:25:16;;;;;;;10.27;6.45;;;8.00;62.60;;;3.19;100.00;95350.16;5008981;28;20040;-50
2023/03/22 04:27:49;;;;;;;10.13;6.45;;;7.90;62.60;;;3.18;100.00;95353.81;5008298;28;20017;-50
2023/03/22 04:30:21;;;;;;;8.73;6.22;;;7.90;62.70;;;3.13;100.00;95355.50;5008767;28;20033;-50
2023/03/22 04:32:48;;;;;;;10.63;6.40;;;7.90;62.70;;;3.11;100.00;95352.31;5005940;28;20120;-51
2023/03/22 04:35:15;;;;;;;9.13;6.05;;;7.90;63.60;;;3.10;100.00;95353.34;5003314;28;20033;-54
2023/03/22 04:37:42;;;;;;;10.40;6.22;;;7.80;62.90;;;3.09;100.00;95355.16;5009990;28;20045;-53
2023/03/22 04:40:15;;;;;;;15.00;6.32;;;7.80;63.00;;;3.11;100.00;95354.97;5009456;28;20358;-51
2023/03/22 04:42:42;;;;;;;13.88;6.82;;;7.80;63.10;;;3.10;100.00;95346.22;5002036;28;20452;-53
2023/03/22 04:45:11;;;;;;;11.10;7.13;;;7.80;63.30;;;3.09;100.00;95347.28;5009913;28;20468;-52
2023/03/22 04:47:37;;;;;;;10.82;6.43;;;7.80;63.30;;;3.07;100.00;95343.25;5012782;28;20071;-52
2023/03/22 04:50:05;;;;;;;10.02;6.97;;;7.80;63.30;;;3.04;100.00;95344.53;5009488;28;20052;-50
2023/03/22 04:52:31;;;;;;;11.82;7.13;;;7.80;63.40;;;3.04;100.00;95341.88;5007389;28;20103;-55
2023/03/22 04:54:57;;;;;;;11.68;7.20;;;7.70;63.30;;;3.04;100.00;95343.69;5008758;28;20116;-52
2023/03/22 04:57:23;;;;;;;8.70;6.25;;;7.70;63.40;;;3.01;100.00;95335.25;5008574;28;20060;-53
2023/03/22 04:59:49;;;;;;;8.52;6.05;;;7.70;63.50;;;3.01;100.00;95339.69;5012085;28;20472;-54
2023/03/22 05:02:16;;;;;;;10.15;6.35;;;7.70;63.50;;;3.00;100.00;95333.59;5008604;28;20481;-52
2023/03/22 05:04:43;;;;;;;8.00;6.05;;;7.70;63.60;;;3.00;100.00;95344.13;5012279;28;20033;-51
2023/03/22 05:07:09;;;;;;;9.98;6.45;;;7.70;63.60;;;3.03;100.00;95340.25;5008274;28;20021;-54
2023/03/22 05:09:35;;;;;;;8.35;5.78;;;7.70;63.60;;;3.06;100.00;95342.44;5011898;28;20475;-49
2023/03/22 05:12:00;;;;;;;8.80;6.40;;;7.70;63.70;;;3.03;100.00;95335.00;5028087;23;20048;-52
2023/03/22 05:14:26;;;;;;;10.82;6.47;;;7.70;63.70;;;3.03;100.00;95337.63;5001789;28;20072;-53
2023/03/22 05:16:52;;;;;;;11.68;7.43;;;7.70;63.80;;;3.04;100.00;95344.53;5003511;28;20033;-52
2023/03/22 05:19:21;;;;;;;11.35;7.15;;;7.70;63.80;;;3.05;100.00;95340.06;5007282;28;20437;-53
2023/03/22 05:21:47;;;;;;;11.73;6.05;;;7.70;63.90;;;2.99;100.00;95350.44;4999336;28;20030;-51
2023/03/22 05:24:13;;;;;;;10.55;6.13;;;7.70;63.80;;;2.98;100.00;95340.94;4981704;28;20026;-53
2023/03/22 05:26:41;;;;;;;8.85;6.25;;;7.70;63.90;;;3.00;100.00;95343.34;4981633;28;20074;-53
2023/03/22 05:29:09;;;;;;;11.93;6.85;;;7.70;63.90;;;2.98;100.00;95342.78;4982800;28;20034;-51
2023/03/22 05:31:36;;;;;;;15.05;6.97;;;7.60;63.90;;;2.94;100.00;95342.41;4986119;28;21433;-51
2023/03/22 05:34:03;;;;;;;12.20;7.40;;;7.70;64.00;;;2.95;100.00;95343.22;4981671;28;20045;-52
2023/03/22 05:36:28;;;;;;;9.32;6.95;;;7.70;64.00;;;2.97;100.00;95341.16;4983089;28;20041;-51
2023/03/22 05:38:56;;;;;;;12.65;7.15;;;7.70;64.00;;;2.95;100.00;95343.22;4981723;28;20030;-55
2023/03/22 05:41:22;;;;;;;11.40;7.18;;;7.70;64.00;;;2.95;100.00;95340.59;4986778;28;20052;-56
2023/03/22 05:43:49;;;;;;;12.60;7.50;;;7.70;64.00;;;2.97;100.00;95352.47;4979738;28;20064;-52
2023/03/22 05:46:15;;;;;;;13.80;6.68;;;7.70;64.00;;;3.01;100.00;95353.66;4982486;28;20026;-53
2023/03/22 05:48:41;;;;;;;9.90;7.13;;;7.70;64.00;;;3.06;100.00;95354.81;4993911;28;20437;-53
2023/03/22 05:51:16;;;;;;;12.00;7.10;;;7.80;64.10;;;3.09;100.00;95344.63;4984668;28;20033;-57
2023/03/22 05:53:46;;;;;;;13.35;7.03;;;7.80;64.20;;;3.07;100.00;95351.13;4985564;28;20064;-55
2023/03/22 05:56:13;;;;;;;12.75;7.50;;;7.80;64.20;;;3.17;100.00;95346.97;4984551;28;20570;-53
2023/03/22 05:58:41;;;;;;;11.75;7.13;;;7.90;64.40;;;3.22;100.00;95351.53;4980914;28;20051;-51
2023/03/22 06:01:10;;;;;;;9.05;6.22;;;7.90;64.40;;;3.28;100.00;95350.66;4984884;28;20057;-56
2023/03/22 06:03:38;;;;;;;9.07;6.43;;;8.00;64.40;;;3.34;100.00;95349.75;4979545;28;20046;-54
2023/03/22 06:06:09;;;;;;;11.90;6.82;;;8.10;64.40;;;3.37;100.00;95348.50;4991034;28;20380;-52
2023/03/22 06:08:38;;;;;;;13.38;7.90;;;8.10;64.40;;;3.45;100.00;95345.56;4979134;28;20026;-55
2023/03/22 06:11:05;;;;;;;11.65;7.10;;;8.20;64.50;;;3.53;100.00;95347.06;4980116;28;20480;-53
2023/03/22 06:13:32;;;;;;;14.32;7.45;;;8.30;64.60;;;3.58;100.00;95348.00;4987933;28;20496;-57
2023/03/22 06:16:03;;;;;;;11.90;7.03;;;8.30;64.50;;;3.65;100.00;95343.41;4993887;28;20457;-50
2023/03/22 06:18:31;;;;;;;14.73;8.40;;;8.40;64.70;;;3.76;100.00;95352.38;4993454;28;20368;-53
2023/03/22 06:20:57;;;;;;;17.63;8.50;;;8.50;64.70;;;3.82;100.00;95345.38;5004462;28;20034;-55
2023/03/22 06:23:24;;;;;;;12.35;7.38;;;8.50;64.60;;;3.90;100.00;95337.94;4989101;28;20021;-54
2023/03/22 06:25:50;;;;;;;13.15;6.57;;;8.60;64.60;;;4.01;100.00;95348.72;4991915;28;20495;-51
2023/03/22 06:28:16;;;;;;;14.18;6.80;;;8.70;64.60;;;4.09;100.00;95343.13;5007991;28;20025;-53
2023/03/22 06:30:42;;;;;;;11.38;6.57;;;8.70;64.60;;;4.18;100.00;95347.81;4991650;28;20428;-53
2023/03/22 06:33:08;;;;;;;18.48;7.38;;;8.80;64.70;;;4.30;100.00;95352.28;4993703;28;20018;-56
2023/03/22 06:35:34;;;;;;;10.98;6.50;;;8.90;64.70;;;4.43;100.00;95354.69;4990209;28;20480;-54
2023/03/22 06:38:00;;;;;;;10.82;6.68;;;9.10;64.90;;;4.54;100.00;95353.84;4984299;28;20032;-52
2023/03/22 06:40:27;;;;;;;9.60;6.22;;;9.20;64.80;;;4.69;100.00;95348.09;4990551;28;20057;-53
2023/03/22 06:42:55;;;;;;;10.57;6.10;;;9.40;64.80;;;4.91;100.00;95348.25;5001803;28;20021;-51
2023/03/22 06:45:21;;;;;;;8.18;5.13;;;9.60;64.90;;;5.13;100.00;95363.47;4991871;28;20047;-53
2023/03/22 06:47:49;;;;;;;8.02;5.07;;;9.80;64.90;;;5.33;100.00;95356.72;4988642;28;20461;-56
2023/03/22 06:50:15;;;;;;;7.80;5.13;;;10.00;64.80;;;5.51;100.00;95362.84;4991870;28;20092;-56
2023/03/22 06:52:41;;;;;;;6.97;4.50;;;10.20;64.60;;;5.65;100.00;95361.50;4991833;28;20026;-53
2023/03/22 06:55:08;;;;;;;4.40;3.47;;;10.40;64.30;;;5.89;100.00;95356.88;4990731;28;20104;-51
2023/03/22 06:57:34;;;;;;;7.10;3.30;;;10.70;64.10;;;6.23;100.00;95356.88;4991180;28;20033;-53
2023/03/22 06:59:59;;;;;;;7.20;3.40;;;11.10;63.80;;;6.67;100.00;95355.09;4984662;28;20479;-51
2023/03/22 07:02:25;;;;;;;4.75;3.08;;;11.60;63.50;;;7.18;100.00;95357.59;4989728;28;20026;-54
2023/03/22 07:04:51;;;;;;;5.25;2.75;;;12.10;63.10;;;7.71;98.92;95363.97;4990085;28;20028;-55
2023/03/22 07:07:17;;;;;;;3.58;2.60;;;12.60;62.60;;;8.20;93.03;95360.34;4992332;28;20108;-53
2023/03/22 07:09:43;;;;;;;5.25;2.60;;;13.20;62.00;;;8.71;88.95;95366.84;4991153;28;20167;-53
2023/03/22 07:12:09;;;;;;;3.67;2.70;;;13.70;61.30;;;9.15;83.47;95363.84;4991506;28;20044;-48
2023/03/22 07:14:35;;;;;;;5.03;2.60;;;14.30;60.50;;;9.59;81.34;95368.75;4989575;28;20049;-50
2023/03/22 07:17:01;;;;;;;5.15;2.95;;;14.80;59.70;;;10.03;77.33;95370.94;4976569;28;20018;-49
2023/03/22 07:19:27;;;;;;;3.10;2.50;;;15.30;58.90;;;10.41;75.80;95358.94;4990410;28;20068;-53
2023/03/22 07:21:53;;;;;;;2.95;2.30;;;15.80;58.20;;;10.86;72.19;95359.91;4984540;28;20030;-50
2023/03/22 07:24:19;;;;;;;5.32;2.40;;;16.20;57.30;;;11.18;68.47;95364.06;4985837;28;20022;-54
2023/03/22 07:26:45;;;;;;;4.82;2.60;;;16.70;56.50;;;11.41;68.43;95362.63;4984649;28;20038;-51
2023/03/22 07:29:11;;;;;;;4.43;2.70;;;17.10;55.60;;;11.75;67.42;95368.03;4985122;28;20030;-53
2023/03/22 07:31:38;;;;;;;3.25;2.60;;;17.50;54.90;;;12.09;67.60;95364.63;4979659;28;20128;-54
2023/03/22 07:34:05;;;;;;;3.78;2.67;;;17.80;54.30;;;12.48;64.47;95359.22;4980602;28;20224;-54
2023/03/22 07:36:31;;;;;;;4.63;3.10;;;18.10;53.60;;;12.77;63.41;95354.94;4980840;28;20030;-54
2023/03/22 07:38:58;;;;;;;4.75;3.15;;;18.50;52.90;;;13.10;62.21;95367.41;4981718;28;20018;-54
2023/03/22 07:41:25;;;;;;;5.13;3.08;;;18.80;52.30;;;13.29;61.16;95361.34;4977125;28;20376;-54
2023/03/22 07:43:51;;;;;;;5.32;3.22;;;19.10;52.40;;;13.42;60.88;95355.28;4981241;28;20504;-52
2023/03/22 07:46:17;;;;;;;5.40;3.47;;;19.40;51.10;;;13.64;60.25;95362.75;4977385;28;20034;-53
2023/03/22 07:48:43;;;;;;;5.15;3.42;;;19.70;50.50;;;13.72;58.63;95362.06;4979888;28;20025;-52
2023/03/22 07:51:09;;;;;;;5.00;3.03;;;20.00;49.80;;;13.94;58.68;95361.47;4977304;28;20408;-52
2023/03/22 07:53:35;;;;;;;3.95;3.03;;;20.20;49.20;;;14.32;57.13;95356.06;4984881;28;20021;-54
2023/03/22 07:56:03;;;;;;;3.97;2.90;;;20.40;48.60;;;14.60;57.30;95351.59;4977435;28;20076;-55
2023/03/22 07:58:30;;;;;;;3.97;2.90;;;20.70;48.20;;;14.75;54.55;95355.91;4981327;28;20021;-54
2023/03/22 08:00:57;;;;;;;5.68;3.20;;;20.90;47.60;;;14.88;52.92;95351.63;4983860;28;20522;-50
2023/03/22 08:03:24;;;;;;;4.78;2.90;;;21.20;46.90;;;14.97;52.55;95345.28;4981373;28;20097;-49
2023/03/22 08:05:50;;;;;;;4.43;3.00;;;21.30;46.20;;;15.20;52.39;95348.09;4976329;28;20105;-49
2023/03/22 08:08:16;;;;;;;2.63;2.40;;;21.50;45.60;;;15.45;52.97;95346.78;4980890;28;20017;-55
2023/03/22 08:10:47;;;;;;;3.25;2.88;;;21.70;45.20;;;15.42;51.61;95350.84;4977621;28;20025;-54
2023/03/22 08:13:12;;;;;;;5.10;2.40;;;21.90;44.80;;;15.74;50.63;95343.75;4982661;28;20045;-54
2023/03/22 08:15:38;;;;;;;5.13;2.92;;;22.10;44.50;;;16.02;50.57;95347.13;4981833;28;20110;-55
2023/03/22 08:18:04;;;;;;;3.97;2.85;;;22.30;44.10;;;16.38;48.30;95344.38;4987511;28;20025;-57
2023/03/22 08:20:30;;;;;;;4.32;2.60;;;22.60;43.50;;;16.68;49.25;95349.31;4984720;28;20156;-53
2023/03/22 08:22:56;;;;;;;3.60;3.00;;;22.80;43.10;;;16.86;47.46;95346.41;4976685;28;20021;-52
2023/03/22 08:25:23;;;;;;;2.85;2.58;;;23.10;42.40;;;16.98;46.68;95342.31;4975409;28;20030;-57
2023/03/22 08:27:49;;;;;;;3.63;2.88;;;23.30;41.90;;;17.09;46.94;95349.81;4977301;28;20157;-53
2023/03/22 08:30:15;;;;;;;3.78;2.72;;;23.40;41.40;;;17.17;45.36;95344.78;4976042;28;20105;-53
2023/03/22 08:32:41;;;;;;;8.27;3.10;;;23.60;40.90;;;17.32;46.24;95347.03;4976419;28;20037;-56
2023/03/22 08:35:08;;;;;;;3.30;2.63;;;23.80;41.10;;;17.56;44.34;95354.69;4974694;28;20419;-56
2023/03/22 08:37:34;;;;;;;3.38;2.70;;;24.00;39.90;;;17.88;44.46;95344.63;4975816;28;20469;-56
2023/03/22 08:40:00;;;;;;;3.08;2.78;;;24.20;39.60;;;18.09;44.16;95356.38;4974742;28;20041;-56
2023/03/22 08:42:26;;;;;;;4.10;2.50;;;24.50;39.20;;;17.98;44.04;95352.38;4985327;28;20018;-57
2023/03/22 08:44:52;;;;;;;2.50;2.30;;;24.60;38.70;;;18.15;43.22;95359.69;4974315;28;20033;-55
2023/03/22 08:47:18;;;;;;;6.75;3.30;;;24.80;38.30;;;18.45;42.31;95352.50;4976411;28;20041;-54
2023/03/22 08:49:44;;;;;;;4.75;2.47;;;25.00;37.70;;;18.49;42.50;95354.25;4978652;28;20467;-55
2023/03/22 08:52:10;;;;;;;5.97;2.85;;;25.20;37.10;;;18.77;41.66;95353.91;4976850;28;20022;-56
2023/03/22 08:54:37;;;;;;;3.38;3.08;;;25.30;36.80;;;19.17;41.26;95359.78;4978429;28;20068;-53
2023/03/22 08:57:03;;;;;;;4.15;3.42;;;25.50;36.70;;;19.04;41.06;95357.31;4991243;28;20033;-57
2023/03/22 08:59:30;;;;;;;3.63;2.95;;;25.70;36.20;;;19.38;40.80;95364.47;4981836;28;20038;-57
2023/03/22 09:01:56;;;;;;;3.90;3.08;;;25.80;35.80;;;19.47;40.81;95364.41;4975397;28;20026;-56
2023/03/22 09:04:21;;;;;;;3.70;3.33;;;25.90;35.50;;;19.07;40.67;95362.84;4974215;28;20031;-57
2023/03/22 09:06:47;;;;;;;3.97;2.78;;;26.00;34.90;;;19.36;41.26;95359.38;4986224;28;20026;-57
2023/03/22 09:09:14;;;;;;;4.57;3.85;;;26.00;34.80;;;19.53;40.10;95360.41;4976156;28;20041;-57
2023/03/22 09:11:41;;;;;;;3.75;3.15;;;26.20;34.70;;;19.48;40.54;95360.59;4975847;28;20069;-56
2023/03/22 09:14:09;;;;;;;4.28;3.70;;;26.40;34.50;;;19.26;40.15;95354.34;4986366;28;20053;-57
2023/03/22 09:16:35;;;;;;;4.82;3.13;;;26.40;34.00;;;19.39;40.58;95353.31;4977220;28;20033;-56
2023/03/22 09:19:02;;;;;;;3.70;3.30;;;26.50;33.90;;;19.50;39.91;95359.16;4991602;28;20018;-56
2023/03/22 09:21:28;;;;;;;3.33;3.03;;;26.50;33.60;;;19.60;38.87;95349.88;4979143;28;20141;-57
2023/03/22 09:23:55;;;;;;;3.35;2.97;;;26.60;33.20;;;19.61;38.64;95357.66;4976440;28;20541;-57
2023/03/22 09:26:22;;;;;;;4.70;3.65;;;26.60;32.80;;;19.81;39.29;95352.66;4977904;28;20029;-54
2023/03/22 09:28:49;;;;;;;4.00;3.17;;;26.60;32.60;;;19.91;39.57;95349.53;4979021;28;20029;-55
2023/03/22 09:31:15;;;;;;;3.60;3.30;;;26.80;32.80;;;20.02;39.32;95353.41;4979024;28;20083;-57
2023/03/22 09:33:41;;;;;;;4.57;3.50;;;26.80;32.70;;;19.67;39.01;95349.38;4979482;28;20100;-55
2023/03/22 09:36:10;;;;;;;4.55;3.50;;;27.00;32.30;;;19.80;38.13;95342.94;4983355;28;20034;-49
2023/03/22 09:38:38;;;;;;;3.60;3.25;;;27.00;31.80;;;20.08;37.94;95348.59;4979132;28;20054;-53
2023/03/22 09:41:24;;;;;;;3.95;3.58;;;27.10;31.80;;;19.91;38.13;95340.66;4982380;28;20041;-56
2023/03/22 09:44:04;;;;;;;7.38;3.67;;;27.20;31.60;;;20.46;37.74;95340.31;4981083;28;20109;-53
2023/03/22 09:46:37;;;;;;;3.65;3.28;;;27.30;31.50;;;20.61;37.43;95336.22;4977448;28;20030;-52
2023/03/22 09:49:38;;;;;;;4.95;3.60;;;27.50;31.40;;;20.33;36.90;95328.66;4982583;28;20392;-54
2023/03/22 09:52:16;;;;;;;9.55;3.90;;;27.60;31.10;;;20.78;36.72;95332.56;4976842;28;20042;-57
2023/03/22 09:54:46;;;;;;;3.50;3.20;;;27.80;30.90;;;20.87;36.41;95335.13;4981925;28;20084;-58
2023/03/22 09:57:37;;;;;;;4.63;3.33;;;27.90;30.40;;;20.83;36.17;95335.03;4977743;28;20022;-57
2023/03/22 10:00:56;;;;;;;3.53;3.22;;;28.10;30.10;;;21.13;36.26;95332.13;4978819;28;20025;-56
2023/03/22 10:03:57;;;;;;;5.60;3.67;;;28.30;30.30;;;21.56;34.78;95328.06;4960870;28;20041;-56
2023/03/22 10:06:26;;;;;;;3.97;3.20;;;28.50;29.90;;;21.56;36.17;95322.66;4992460;28;20392;-56
2023/03/22 10:09:43;;;;;;;4.55;3.60;;;28.70;29.90;;;21.70;35.16;95331.22;4977542;28;20065;-57
2023/03/22 10:12:26;;;;;;;5.03;3.60;;;28.90;29.80;;;22.21;34.22;95322.63;4951495;28;20093;-55
2023/03/22 10:15:27;;;;;;;3.97;3.30;;;29.30;29.50;;;22.55;33.03;95318.53;4991016;28;20107;-58
2023/03/22 10:17:59;;;;;;;4.05;3.25;;;29.60;29.20;;;22.23;32.44;95307.59;4982030;28;20030;-58
2023/03/22 10:20:38;;;;;;;3.47;3.17;;;29.70;28.90;;;21.64;33.71;95313.63;4982803;28;20034;-58
2023/03/22 10:23:15;;;;;;;3.65;2.90;;;29.90;28.50;;;21.90;33.71;95314.00;4980172;28;20025;-58
2023/03/22 10:25:43;;;;;;;2.97;2.70;;;29.90;28.20;;;22.06;32.56;95308.66;4982131;28;20033;-55
2023/03/22 10:28:55;;;;;;;5.63;2.90;;;30.00;28.00;;;22.18;33.18;95311.34;4981177;28;20018;-56
2023/03/22 10:31:25;;;;;;;3.25;2.95;;;30.10;27.70;;;22.68;32.33;95294.81;4973915;28;20042;-55
2023/03/22 10:34:12;;;;;;;5.47;2.63;;;30.30;27.90;;;22.69;31.43;95299.09;4982324;28;20126;-57
2023/03/22 10:36:42;;;;;;;2.67;2.30;;;30.40;27.40;;;22.85;31.15;95302.66;5004286;28;20044;-56
2023/03/22 10:39:35;;;;;;;2.25;2.05;;;30.50;27.10;;;22.61;30.64;95290.78;4983046;28;20060;-56
2023/03/22 10:42:19;;;;;;;3.03;2.08;;;30.60;27.00;;;22.17;31.61;95293.50;5005108;28;20037;-58